< < Back
Terminal Aerodrome Forecast


Current Version              Previous Versions:   1  2  3  4  5  6  7  8  9  

Terminal Aerodrome Forecast

686
FTUS42 KTAE 051039 AAA
TAFVLD
TAF AMD
KVLD 051039Z 0511/0606 VRB04KT P6SM OVC002
      TEMPO 0511/0513 SCT002
     FM051400 07004KT P6SM SCT040
     FM051800 08007KT P6SM VCTS SCT040CB
     FM060100 00000KT P6SM BKN250=

Latest METAR

422
SAUS70 KWBC 051200 RRK
MTRVLD
METAR KVLD 051153Z 00000KT 10SM OVC002 22/22 A3002 RMK AO2 SLP172 70073
T02220222 10233 20222 51015


USA.gov is the U.S. government's official web portal to all federal, state and local government web resources and services.